Time;durP1;ratioP1;P1;durP2;ratioP2;P2;SDS_P1;SDS_P2;PMS_P1;PMS_P2;Temp;Humidity;BMP_temperature;BMP_pressure;BME280_temperature;BME280_humidity;BME280_pressure;Samples;Min_cycle;Max_cycle;Signal;HPM_P1;HPM_P2
2022/08/05 00:01:37;;;;;;;8.95;4.72;;;;;;;20.38;75.71;101429.00;5024964;28;20124;-59
2022/08/05 00:04:03;;;;;;;11.57;5.18;;;;;;;20.36;75.44;101420.28;5030374;28;20497;-59
2022/08/05 00:06:28;;;;;;;7.75;4.85;;;;;;;20.30;75.49;101431.97;5026731;28;20598;-60
2022/08/05 00:08:53;;;;;;;7.60;4.90;;;;;;;20.33;75.76;101432.34;5035167;28;20025;-59
2022/08/05 00:11:19;;;;;;;9.43;4.93;;;;;;;20.33;75.17;101426.13;5027093;28;20033;-59
2022/08/05 00:13:44;;;;;;;8.40;4.88;;;;;;;20.30;75.24;101427.41;5030830;28;20448;-57
2022/08/05 00:16:13;;;;;;;11.52;5.05;;;;;;;20.29;75.77;101433.84;5028146;28;20036;-57
2022/08/05 00:18:41;;;;;;;7.68;4.82;;;;;;;20.27;76.02;101432.41;5028306;28;20458;-59
2022/08/05 00:21:06;;;;;;;6.80;4.88;;;;;;;20.30;75.79;101431.97;5029923;28;20486;-59
2022/08/05 00:23:31;;;;;;;10.75;4.80;;;;;;;20.30;75.78;101424.72;5042264;28;20029;-58
2022/08/05 00:25:56;;;;;;;11.13;4.82;;;;;;;20.34;75.96;101430.47;5026726;28;20030;-59
2022/08/05 00:28:22;;;;;;;7.25;4.57;;;;;;;20.34;75.96;101433.19;5030660;28;20668;-57
2022/08/05 00:30:47;;;;;;;9.77;4.53;;;;;;;20.35;75.80;101424.88;5030155;28;20029;-60
2022/08/05 00:33:14;;;;;;;8.95;4.25;;;;;;;20.38;75.89;101434.38;5030314;28;20028;-58
2022/08/05 00:35:40;;;;;;;8.75;4.68;;;;;;;20.37;76.04;101425.47;5032546;28;20302;-60
2022/08/05 00:38:05;;;;;;;9.35;4.28;;;;;;;20.37;75.27;101428.16;5028752;28;20128;-57
2022/08/05 00:40:30;;;;;;;9.23;4.25;;;;;;;20.36;75.71;101431.91;5028309;28;20095;-60
2022/08/05 00:42:57;;;;;;;11.00;4.03;;;;;;;20.32;75.94;101441.50;5027106;28;20068;-60
2022/08/05 00:45:22;;;;;;;10.70;3.90;;;;;;;20.33;76.13;101445.00;5029466;28;20021;-59
2022/08/05 00:47:48;;;;;;;8.23;4.22;;;;;;;20.31;76.09;101439.03;5028629;28;20533;-58
2022/08/05 00:50:13;;;;;;;10.77;4.47;;;;;;;20.29;75.87;101433.03;5029541;28;20728;-60
2022/08/05 00:52:38;;;;;;;8.82;4.20;;;;;;;20.27;75.89;101441.34;5026260;28;20038;-60
2022/08/05 00:55:04;;;;;;;10.55;3.92;;;;;;;20.25;75.88;101442.59;5030949;28;20067;-60
2022/08/05 00:57:30;;;;;;;8.77;4.00;;;;;;;20.22;75.91;101434.91;5026798;28;20026;-60
2022/08/05 00:59:55;;;;;;;12.98;4.50;;;;;;;20.28;76.25;101447.56;5032993;28;20092;-59
2022/08/05 01:02:20;;;;;;;10.05;4.32;;;;;;;20.26;76.17;101441.56;5029670;28;20033;-60
2022/08/05 01:04:45;;;;;;;12.25;4.47;;;;;;;20.24;75.99;101449.00;5030098;28;20636;-60
2022/08/05 01:07:11;;;;;;;10.27;4.07;;;;;;;20.24;76.22;101452.56;5027642;28;20405;-59
2022/08/05 01:09:36;;;;;;;10.48;4.22;;;;;;;20.21;76.21;101454.84;5028935;28;20036;-59
2022/08/05 01:12:05;;;;;;;9.50;4.25;;;;;;;20.20;76.32;101459.41;5030157;28;20086;-58
2022/08/05 01:14:43;;;;;;;10.00;4.43;;;;;;;20.17;76.37;101469.81;5032806;28;20550;-59
2022/08/05 01:17:26;;;;;;;10.60;3.85;;;;;;;20.22;75.84;101465.41;5027984;28;20033;-59
2022/08/05 01:19:59;;;;;;;10.95;4.57;;;;;;;20.18;75.87;101477.69;5026522;28;20031;-61
2022/08/05 01:22:53;;;;;;;12.63;4.53;;;;;;;20.23;76.20;101474.31;5027316;28;20028;-58
2022/08/05 01:25:43;;;;;;;11.75;4.28;;;;;;;20.20;76.01;101469.38;5030854;28;20103;-58
2022/08/05 01:28:11;;;;;;;9.93;4.30;;;;;;;20.17;75.68;101472.50;5021428;28;20026;-60
2022/08/05 01:30:42;;;;;;;8.27;4.00;;;;;;;20.09;75.73;101487.91;5031671;28;20542;-58
2022/08/05 01:33:10;;;;;;;9.25;3.92;;;;;;;20.11;75.76;101495.78;5026683;28;20025;-57
2022/08/05 01:35:39;;;;;;;6.60;4.00;;;;;;;20.11;76.14;101499.31;5031932;28;20037;-60
2022/08/05 01:38:07;;;;;;;11.63;3.90;;;;;;;20.09;75.89;101504.09;5029241;28;20021;-57
2022/08/05 01:40:32;;;;;;;12.07;3.75;;;;;;;20.10;76.29;101494.97;5026133;28;20037;-59
2022/08/05 01:43:01;;;;;;;9.98;4.22;;;;;;;20.08;75.69;101488.97;5022871;28;20026;-57
2022/08/05 01:45:29;;;;;;;10.83;4.10;;;;;;;20.11;75.62;101491.22;5029278;28;20055;-58
2022/08/05 01:47:56;;;;;;;12.40;4.13;;;;;;;20.09;75.44;101498.72;5029074;28;20029;-60
2022/08/05 01:50:27;;;;;;;9.10;3.78;;;;;;;20.07;75.53;101500.78;5021842;28;20030;-57
2022/08/05 01:52:54;;;;;;;7.60;3.47;;;;;;;20.08;75.75;101488.13;5026379;28;20029;-58
2022/08/05 01:55:22;;;;;;;13.00;3.83;;;;;;;20.05;75.10;101486.72;5027789;28;20033;-58
2022/08/05 01:57:50;;;;;;;8.95;3.88;;;;;;;20.04;75.34;101484.22;5028481;28;20107;-58
2022/08/05 02:00:17;;;;;;;12.00;4.17;;;;;;;20.04;74.86;101484.22;5025712;28;20114;-57
2022/08/05 02:02:46;;;;;;;11.35;3.55;;;;;;;20.06;74.99;101464.09;5033204;28;20036;-59
2022/08/05 02:05:13;;;;;;;8.18;3.55;;;;;;;20.04;75.04;101466.19;5027124;28;20037;-58
2022/08/05 02:07:41;;;;;;;13.50;4.00;;;;;;;20.08;74.98;101458.47;5029398;28;20584;-60
2022/08/05 02:10:08;;;;;;;9.77;3.60;;;;;;;20.04;74.77;101466.19;5022262;28;21391;-59
2022/08/05 02:12:40;;;;;;;10.23;3.75;;;;;;;20.05;75.11;101467.00;5030167;28;20033;-60
2022/08/05 02:15:23;;;;;;;8.27;3.72;;;;;;;20.06;74.57;101460.56;5028004;28;20113;-59
2022/08/05 02:17:58;;;;;;;7.90;3.83;;;;;;;19.99;74.92;101452.53;5029725;28;20021;-60
2022/08/05 02:20:26;;;;;;;12.63;4.10;;;;;;;20.01;74.59;101436.97;5023910;28;20025;-58
2022/08/05 02:23:01;;;;;;;11.45;3.90;;;;;;;20.02;74.77;101445.88;5024310;28;20032;-59
2022/08/05 02:25:30;;;;;;;15.40;4.32;;;;;;;19.96;74.47;101461.06;5029705;28;20036;-58
2022/08/05 02:27:57;;;;;;;9.95;4.00;;;;;;;19.99;74.57;101454.41;5027369;28;20080;-60
2022/08/05 02:30:26;;;;;;;7.95;3.92;;;;;;;19.97;74.22;101457.31;5028492;28;20028;-58
2022/08/05 02:32:54;;;;;;;;;;;;;;;20.16;74.23;101442.03;5029361;28;20064;-60
2022/08/05 02:35:22;;;;;;;11.55;4.45;;;;;;;19.98;74.39;101444.66;5031202;28;19995;-59
2022/08/05 02:37:51;;;;;;;10.98;4.28;;;;;;;19.94;74.37;101460.41;5025396;28;20163;-59
2022/08/05 02:40:17;;;;;;;9.90;4.47;;;;;;;19.95;73.88;101475.59;5026733;28;20048;-59
2022/08/05 02:42:44;;;;;;;13.23;4.55;;;;;;;19.91;74.39;101487.00;5024728;28;20705;-59
2022/08/05 02:45:11;;;;;;;9.32;4.47;;;;;;;19.91;74.25;101490.50;5027630;28;20029;-58
2022/08/05 02:47:36;;;;;;;11.60;4.32;;;;;;;19.90;74.43;101483.47;5023720;28;20525;-59
2022/08/05 02:50:05;;;;;;;10.60;4.40;;;;;;;19.92;74.21;101481.38;5024034;28;20021;-58
2022/08/05 02:52:31;;;;;;;10.23;4.13;;;;;;;19.93;74.50;101480.34;5024806;28;20026;-57
2022/08/05 02:54:59;;;;;;;10.48;4.68;;;;;;;19.93;74.27;101484.91;5029392;28;20398;-59
2022/08/05 02:57:24;;;;;;;9.73;4.50;;;;;;;19.89;74.47;101479.13;5026458;28;20021;-57
2022/08/05 02:59:50;;;;;;;9.35;4.20;;;;;;;19.90;74.32;101469.16;5027769;28;20048;-60
2022/08/05 03:02:22;;;;;;;9.95;4.50;;;;;;;19.91;74.41;101477.03;5023431;28;20033;-58
2022/08/05 03:04:50;;;;;;;12.32;4.45;;;;;;;19.88;74.52;101452.38;5023184;28;20021;-60
2022/08/05 03:07:17;;;;;;;9.25;4.82;;;;;;;19.88;74.25;101450.50;5021718;28;20029;-60
2022/08/05 03:09:44;;;;;;;15.52;5.07;;;;;;;19.88;74.00;101455.91;5028436;28;20032;-59
2022/08/05 03:12:09;;;;;;;9.95;4.57;;;;;;;19.82;74.50;101447.88;5036544;28;20049;-58
2022/08/05 03:14:35;;;;;;;8.98;4.10;;;;;;;19.85;74.28;101456.34;5028650;28;20023;-58
2022/08/05 03:17:00;;;;;;;10.05;4.32;;;;;;;19.88;74.41;101449.69;5029186;28;20030;-57
2022/08/05 03:19:25;;;;;;;12.43;4.18;;;;;;;19.85;74.36;101458.22;5023085;28;20028;-57
2022/08/05 03:21:50;;;;;;;13.43;4.80;;;;;;;19.81;74.24;101465.91;5027159;28;20047;-57
2022/08/05 03:24:19;;;;;;;10.10;4.70;;;;;;;19.83;74.56;101477.28;5027497;28;20478;-60
2022/08/05 03:26:45;;;;;;;10.88;5.10;;;;;;;19.80;74.39;101480.44;5027046;28;20039;-57
2022/08/05 03:29:11;;;;;;;10.32;4.25;;;;;;;19.77;74.49;101478.16;5028127;28;20083;-60
2022/08/05 03:31:37;;;;;;;9.05;4.30;;;;;;;19.75;74.63;101482.94;5025950;28;20079;-58
2022/08/05 03:34:03;;;;;;;10.23;4.68;;;;;;;19.73;74.28;101485.03;5027096;28;20022;-59
2022/08/05 03:36:29;;;;;;;21.40;4.53;;;;;;;19.72;74.29;101486.06;5024130;28;20033;-60
2022/08/05 03:38:55;;;;;;;12.73;4.50;;;;;;;19.69;74.35;101502.69;5030150;28;20029;-60
2022/08/05 03:41:20;;;;;;;9.95;4.60;;;;;;;19.63;74.52;101503.50;5033402;28;20534;-60
2022/08/05 03:43:45;;;;;;;11.57;4.68;;;;;;;19.60;74.86;101502.06;5028009;28;20022;-60
2022/08/05 03:46:11;;;;;;;10.10;4.60;;;;;;;19.61;74.72;101498.34;5023362;28;20048;-59
2022/08/05 03:48:36;;;;;;;11.02;4.65;;;;;;;19.61;74.64;101486.72;5028212;28;22104;-59
2022/08/05 03:51:27;;;;;;;11.88;4.78;;;;;;;19.69;74.91;101479.25;5024415;28;20033;-59
2022/08/05 03:54:02;;;;;;;9.48;4.63;;;;;;;19.64;75.12;101470.97;5024651;28;20069;-60
2022/08/05 03:56:32;;;;;;;11.35;4.65;;;;;;;19.57;74.68;101470.16;5026774;28;20486;-60
2022/08/05 03:59:01;;;;;;;9.60;4.85;;;;;;;19.56;75.06;101473.91;5027920;28;20025;-58
2022/08/05 04:01:30;;;;;;;13.68;4.90;;;;;;;19.54;75.12;101467.91;5022762;28;20026;-60
2022/08/05 04:03:57;;;;;;;11.23;4.40;;;;;;;19.53;75.01;101457.31;5025140;28;20113;-59
2022/08/05 04:06:23;;;;;;;9.90;4.72;;;;;;;19.50;75.05;101454.00;5022086;28;20021;-60
2022/08/05 04:08:48;;;;;;;9.65;5.03;;;;;;;19.53;75.18;101451.94;5025839;28;20027;-59
2022/08/05 04:11:14;;;;;;;10.32;4.43;;;;;;;19.50;75.06;101453.19;5026662;28;20025;-57
2022/08/05 04:13:40;;;;;;;11.25;4.82;;;;;;;19.44;74.90;101454.88;5025367;28;20037;-58
2022/08/05 04:16:07;;;;;;;12.18;4.53;;;;;;;19.47;75.30;101459.81;5022377;28;20071;-59
2022/08/05 04:18:33;;;;;;;11.30;4.63;;;;;;;19.41;75.15;101455.31;5030916;28;20030;-59
2022/08/05 04:20:59;;;;;;;12.27;4.32;;;;;;;19.41;75.34;101462.56;5023231;28;20056;-59
2022/08/05 04:23:26;;;;;;;11.90;4.72;;;;;;;19.36;75.02;101470.44;5028919;28;20113;-56
2022/08/05 04:25:52;;;;;;;11.75;4.68;;;;;;;19.32;74.95;101459.25;5027417;28;20030;-58
2022/08/05 04:28:19;;;;;;;8.88;4.20;;;;;;;19.30;74.96;101461.34;5027453;28;20021;-58
2022/08/05 04:30:44;;;;;;;9.15;4.47;;;;;;;19.27;75.51;101472.53;5022259;28;20506;-59
2022/08/05 04:33:10;;;;;;;10.23;4.55;;;;;;;19.32;75.29;101475.41;5025452;28;20028;-57
2022/08/05 04:35:35;;;;;;;9.98;4.50;;;;;;;19.26;75.16;101488.91;5028154;28;20594;-58
2022/08/05 04:38:00;;;;;;;10.93;5.10;;;;;;;19.26;75.31;101487.03;5028070;28;20033;-57
2022/08/05 04:40:25;;;;;;;12.73;4.63;;;;;;;19.26;75.88;101483.53;5023491;28;20797;-57
2022/08/05 04:42:51;;;;;;;9.82;4.10;;;;;;;19.25;75.88;101490.78;5020482;28;20050;-57
2022/08/05 04:45:16;;;;;;;11.90;4.47;;;;;;;19.26;75.86;101492.44;5030336;28;20021;-58
2022/08/05 04:47:41;;;;;;;11.57;4.40;;;;;;;19.24;75.61;101491.00;5029143;28;20022;-59
2022/08/05 04:50:07;;;;;;;10.13;4.40;;;;;;;19.25;75.87;101495.34;5027561;28;20021;-58
2022/08/05 04:52:32;;;;;;;9.98;4.50;;;;;;;19.21;75.76;101486.84;5021848;28;20111;-58
2022/08/05 04:54:58;;;;;;;8.40;4.05;;;;;;;19.23;75.98;101489.34;5030628;28;20039;-59
2022/08/05 04:57:24;;;;;;;10.30;4.38;;;;;;;19.16;75.91;101492.06;5027310;28;20033;-57
2022/08/05 04:59:50;;;;;;;10.93;4.57;;;;;;;19.12;76.17;101496.22;5031639;28;20025;-60
2022/08/05 05:02:15;;;;;;;8.98;3.83;;;;;;;19.10;75.99;101495.59;5026747;28;20028;-60
2022/08/05 05:04:40;;;;;;;7.53;3.53;;;;;;;19.07;75.68;101488.75;5014887;28;20087;-60
2022/08/05 05:07:05;;;;;;;10.13;3.75;;;;;;;19.10;76.29;101484.81;5030362;28;20056;-59
2022/08/05 05:09:31;;;;;;;10.32;3.95;;;;;;;19.05;76.39;101484.59;5031086;28;20098;-59
2022/08/05 05:11:56;;;;;;;10.18;3.30;;;;;;;19.07;76.00;101485.22;5022688;28;20402;-60
2022/08/05 05:14:21;;;;;;;8.65;3.53;;;;;;;19.01;75.99;101486.91;5033641;28;20033;-59
2022/08/05 05:16:46;;;;;;;10.70;3.47;;;;;;;18.98;76.00;101481.94;5028198;28;20585;-59
2022/08/05 05:19:12;;;;;;;9.05;3.65;;;;;;;18.99;76.49;101480.91;5028553;28;20618;-57
2022/08/05 05:21:37;;;;;;;11.38;3.60;;;;;;;18.95;76.44;101484.22;5029797;28;20037;-60
2022/08/05 05:24:03;;;;;;;10.07;3.20;;;;;;;18.94;76.47;101496.84;5022433;28;20056;-61
2022/08/05 05:26:28;;;;;;;8.57;3.47;;;;;;;18.92;76.65;101498.09;5023035;28;20705;-59
2022/08/05 05:28:53;;;;;;;6.45;3.30;;;;;;;18.95;76.57;101490.44;5026421;28;20038;-59
2022/08/05 05:31:19;;;;;;;9.35;3.22;;;;;;;18.92;76.56;101503.50;5029556;28;20025;-59
2022/08/05 05:33:44;;;;;;;9.77;3.45;;;;;;;18.86;76.41;101507.84;5033077;28;20086;-57
2022/08/05 05:36:09;;;;;;;10.60;3.53;;;;;;;18.88;76.67;101505.78;5029699;28;20029;-58
2022/08/05 05:38:34;;;;;;;8.55;3.60;;;;;;;18.85;76.62;101498.94;5027243;28;20081;-58
2022/08/05 05:41:00;;;;;;;11.00;3.53;;;;;;;18.86;76.64;101505.16;5027053;28;20052;-59
2022/08/05 05:43:25;;;;;;;8.55;3.45;;;;;;;18.89;77.09;101510.13;5034834;28;20029;-57
2022/08/05 05:45:50;;;;;;;9.63;3.72;;;;;;;18.87;76.91;101512.19;5037421;28;20048;-58
2022/08/05 05:48:15;;;;;;;8.85;3.33;;;;;;;18.91;77.08;101518.81;5027076;28;20025;-57
2022/08/05 05:50:41;;;;;;;13.07;3.85;;;;;;;18.92;76.77;101522.31;5031950;28;20108;-58
2022/08/05 05:53:08;;;;;;;9.23;3.33;;;;;;;18.94;77.16;101528.31;5018744;28;20056;-57
2022/08/05 05:55:33;;;;;;;7.75;3.15;;;;;;;18.96;77.02;101527.09;5026125;28;20033;-59
2022/08/05 05:57:59;;;;;;;9.32;3.35;;;;;;;19.00;77.14;101528.31;5016059;28;20041;-58
2022/08/05 06:00:24;;;;;;;10.48;3.20;;;;;;;19.04;76.90;101531.41;5019853;28;20033;-56
2022/08/05 06:02:49;;;;;;;10.48;3.25;;;;;;;19.09;76.83;101539.72;5026099;28;20055;-59
2022/08/05 06:05:15;;;;;;;9.13;3.80;;;;;;;19.08;76.56;101536.19;5020146;28;20101;-58
2022/08/05 06:07:41;;;;;;;9.13;3.28;;;;;;;19.12;76.71;101548.19;5014385;28;20013;-60
2022/08/05 06:10:08;;;;;;;12.02;3.40;;;;;;;19.12;76.48;101541.97;5019422;28;20022;-58
2022/08/05 06:12:35;;;;;;;6.70;3.28;;;;;;;19.14;76.70;101545.28;5017417;28;20117;-60
2022/08/05 06:15:02;;;;;;;9.85;3.90;;;;;;;19.14;76.32;101547.97;5020385;28;20025;-57
2022/08/05 06:17:28;;;;;;;7.65;3.40;;;;;;;19.10;76.30;101542.19;5018757;28;20037;-57
2022/08/05 06:19:53;;;;;;;11.10;3.53;;;;;;;19.15;76.72;101544.25;5037778;28;20045;-55
2022/08/05 06:22:27;;;;;;;7.72;3.63;;;;;;;19.11;76.19;101545.72;5016602;28;20041;-59
2022/08/05 06:24:52;;;;;;;11.20;3.70;;;;;;;19.12;76.36;101548.19;5017577;28;20446;-57
2022/08/05 06:27:18;;;;;;;8.48;3.53;;;;;;;19.22;76.58;101553.13;5017024;28;20502;-59
2022/08/05 06:29:43;;;;;;;8.73;3.78;;;;;;;19.23;76.32;101552.09;5024072;28;20049;-60
2022/08/05 06:32:10;;;;;;;8.13;3.40;;;;;;;19.26;76.47;101548.16;5024240;28;20029;-58
2022/08/05 06:34:36;;;;;;;9.27;3.90;;;;;;;19.33;76.22;101554.34;5018641;28;20026;-60
2022/08/05 06:37:01;;;;;;;10.57;3.40;;;;;;;19.38;76.41;101546.50;5020473;28;20494;-59
2022/08/05 06:39:26;;;;;;;7.00;3.65;;;;;;;19.48;76.26;101553.09;5025846;28;20029;-60
2022/08/05 06:41:52;;;;;;;34.85;22.45;;;;;;;19.56;76.16;101548.53;5026494;28;20430;-58
2022/08/05 06:44:17;;;;;;;11.55;5.10;;;;;;;19.66;76.17;101560.53;5018924;28;20037;-60
2022/08/05 06:46:43;;;;;;;10.70;4.20;;;;;;;19.67;75.83;101561.34;5024701;28;20028;-60
2022/08/05 06:49:08;;;;;;;10.55;3.60;;;;;;;19.67;75.62;101555.97;5021504;28;20018;-58
2022/08/05 06:51:33;;;;;;;10.35;3.72;;;;;;;19.67;75.39;101556.78;5020073;28;20033;-59
2022/08/05 06:54:01;;;;;;;7.68;3.60;;;;;;;19.72;75.21;101562.38;5016505;28;20060;-59
2022/08/05 06:56:27;;;;;;;9.07;3.60;;;;;;;19.81;75.23;101573.72;5021970;28;20017;-59
2022/08/05 06:58:53;;;;;;;8.40;3.58;;;;;;;19.82;75.17;101566.47;5029141;28;20025;-58
2022/08/05 07:01:18;;;;;;;13.13;4.00;;;;;;;19.82;75.01;101569.97;5018104;28;20404;-59
2022/08/05 07:03:43;;;;;;;15.70;6.45;;;;;;;19.90;74.65;101574.31;5024474;28;20013;-58
2022/08/05 07:06:09;;;;;;;9.30;3.30;;;;;;;19.93;74.73;101590.88;5017471;28;20454;-57
2022/08/05 07:08:34;;;;;;;7.95;3.17;;;;;;;19.96;74.26;101590.47;5021494;28;20021;-57
2022/08/05 07:10:59;;;;;;;8.23;3.30;;;;;;;20.00;74.36;101583.59;5013508;28;20080;-57
2022/08/05 07:18:56;;;;;;;7.22;3.38;;;;;;;20.09;73.76;101595.78;5017063;28;20118;-58
2022/08/05 07:21:22;;;;;;;11.82;3.22;;;;;;;20.15;73.52;101606.75;5013625;28;20025;-59
2022/08/05 07:23:47;;;;;;;9.55;3.45;;;;;;;20.24;73.36;101610.84;5024820;28;20024;-58
2022/08/05 07:26:12;;;;;;;6.43;3.00;;;;;;;20.25;73.03;101613.34;5021754;28;20501;-59
2022/08/05 07:28:37;;;;;;;8.18;3.25;;;;;;;20.27;73.03;101618.53;5019290;28;20036;-57
2022/08/05 07:31:03;;;;;;;11.80;3.50;;;;;;;20.30;72.77;101626.19;5021739;28;20025;-58
2022/08/05 07:33:28;;;;;;;10.40;3.53;;;;;;;20.32;72.91;101622.25;5018482;28;20463;-59
2022/08/05 07:35:53;;;;;;;7.82;3.35;;;;;;;20.37;72.68;101624.28;5009999;28;20025;-58
2022/08/05 07:38:18;;;;;;;8.52;3.78;;;;;;;20.31;72.32;101628.69;5023352;28;20591;-59
2022/08/05 07:40:44;;;;;;;9.07;3.45;;;;;;;20.31;72.29;101631.38;5017327;28;20025;-60
2022/08/05 07:43:10;;;;;;;7.78;3.15;;;;;;;20.40;72.25;101630.09;5017347;28;20131;-60
2022/08/05 07:45:36;;;;;;;9.00;3.20;;;;;;;20.40;72.32;101627.41;5018952;28;20048;-57
2022/08/05 07:48:01;;;;;;;13.05;5.85;;;;;;;20.46;71.77;101633.81;5024113;28;20397;-57
2022/08/05 07:50:26;;;;;;;9.68;4.70;;;;;;;20.53;71.54;101631.91;5023884;28;20029;-60
2022/08/05 07:52:52;;;;;;;9.13;3.00;;;;;;;20.56;71.01;101623.38;5018960;28;20025;-58
2022/08/05 07:55:17;;;;;;;6.28;3.03;;;;;;;20.57;70.48;101627.72;5020075;28;20507;-57
2022/08/05 07:57:42;;;;;;;8.48;2.83;;;;;;;20.57;70.20;101627.72;5025482;28;20060;-59
2022/08/05 08:00:09;;;;;;;6.75;2.60;;;;;;;20.62;70.19;101638.69;5021210;28;20087;-59
2022/08/05 08:02:34;;;;;;;6.75;2.17;;;;;;;20.73;69.88;101640.69;5022589;28;20022;-59
2022/08/05 08:05:00;;;;;;;5.35;1.80;;;;;;;20.80;68.71;101645.22;5022006;28;20410;-60
2022/08/05 08:07:25;;;;;;;4.90;1.75;;;;;;;20.97;67.99;101649.03;5018948;28;20104;-59
2022/08/05 08:09:51;;;;;;;5.35;2.05;;;;;;;21.03;67.31;101648.97;5019448;28;20029;-60
2022/08/05 08:12:16;;;;;;;4.68;1.75;;;;;;;21.09;66.69;101655.38;5014166;28;20514;-59
2022/08/05 08:14:42;;;;;;;3.22;1.83;;;;;;;21.13;66.88;101653.09;5018461;28;20550;-58
2022/08/05 08:17:10;;;;;;;3.58;1.60;;;;;;;21.10;65.98;101654.31;5013184;28;20030;-59
2022/08/05 08:19:39;;;;;;;4.18;1.50;;;;;;;21.20;66.11;101667.34;5019475;28;20480;-60
2022/08/05 08:22:06;;;;;;;5.50;2.20;;;;;;;21.22;66.12;101662.56;5019392;28;20032;-59
2022/08/05 08:24:31;;;;;;;3.50;1.80;;;;;;;21.26;66.35;101663.78;5020209;28;20032;-56
2022/08/05 08:26:57;;;;;;;9.48;2.33;;;;;;;21.31;65.99;101672.88;5013561;28;20022;-60
2022/08/05 08:29:22;;;;;;;6.03;2.40;;;;;;;21.26;65.93;101669.19;5021377;28;20389;-58
2022/08/05 08:31:49;;;;;;;8.38;2.30;;;;;;;21.16;65.78;101677.78;5017646;28;20022;-57
2022/08/05 08:34:20;;;;;;;6.82;2.40;;;;;;;21.12;65.46;101670.34;5022479;28;20049;-59
2022/08/05 08:36:45;;;;;;;7.32;2.42;;;;;;;21.18;65.79;101675.69;5017990;28;20124;-57
2022/08/05 08:39:11;;;;;;;4.25;2.08;;;;;;;21.23;65.90;101672.31;5018414;28;20690;-58
2022/08/05 08:41:39;;;;;;;5.90;2.40;;;;;;;21.29;65.57;101680.38;5022016;28;20022;-59
2022/08/05 08:44:06;;;;;;;5.53;2.20;;;;;;;21.33;65.41;101681.59;5019159;28;20490;-58
2022/08/05 08:46:33;;;;;;;5.68;2.20;;;;;;;21.44;65.64;101692.75;5023979;28;20434;-59
2022/08/05 08:48:59;;;;;;;7.65;2.15;;;;;;;21.52;65.40;101676.25;5014262;28;20034;-59
2022/08/05 08:51:30;;;;;;;5.07;2.00;;;;;;;21.65;65.81;101692.31;5020859;28;20112;-57
2022/08/05 08:53:56;;;;;;;5.22;2.20;;;;;;;21.74;65.93;101695.59;5016707;28;20044;-58
2022/08/05 08:56:22;;;;;;;5.20;2.30;;;;;;;21.75;65.81;101702.63;5017351;28;20044;-58
2022/08/05 08:58:47;;;;;;;6.90;2.30;;;;;;;21.78;65.20;101707.59;5020101;28;20033;-57
2022/08/05 09:01:13;;;;;;;6.18;2.38;;;;;;;21.57;64.71;101709.66;5015572;28;20394;-58
2022/08/05 09:03:39;;;;;;;4.47;2.13;;;;;;;21.55;64.57;101721.75;5021826;28;20013;-59
2022/08/05 09:06:05;;;;;;;6.97;2.20;;;;;;;21.35;64.64;101721.91;5019364;28;20026;-58
2022/08/05 09:08:30;;;;;;;6.45;1.90;;;;;;;21.19;64.09;101722.44;5023543;28;20026;-58
2022/08/05 09:10:56;;;;;;;5.53;2.10;;;;;;;21.03;63.95;101734.56;5017561;28;20054;-57
2022/08/05 09:13:22;;;;;;;5.90;1.95;;;;;;;20.88;64.09;101726.78;5025609;28;20032;-58
2022/08/05 09:15:48;;;;;;;7.55;1.90;;;;;;;20.87;64.03;101724.31;5023671;28;20028;-58
2022/08/05 09:18:13;;;;;;;3.00;1.75;;;;;;;20.86;63.99;101728.06;5024023;28;20026;-58
2022/08/05 09:20:42;;;;;;;6.63;1.73;;;;;;;20.96;64.08;101725.69;5017556;28;20024;-58
2022/08/05 09:23:10;;;;;;;5.45;1.83;;;;;;;21.12;64.04;101727.88;5019430;28;20091;-59
2022/08/05 09:25:38;;;;;;;4.00;1.52;;;;;;;21.45;64.73;101733.06;5014376;28;20494;-57
2022/08/05 09:28:13;;;;;;;6.00;1.35;;;;;;;21.53;63.42;101735.47;5021243;28;20041;-60
2022/08/05 09:30:42;;;;;;;3.72;1.48;;;;;;;21.63;63.06;101734.97;5028355;28;20033;-60
2022/08/05 09:33:08;;;;;;;4.40;1.67;;;;;;;21.71;62.94;101731.19;5022553;28;20034;-59
2022/08/05 09:35:33;;;;;;;22.17;15.82;;;;;;;21.87;62.61;101742.22;5027369;28;20032;-60
2022/08/05 09:37:59;;;;;;;4.97;2.00;;;;;;;22.14;62.56;101748.22;5020789;28;20062;-60
2022/08/05 09:40:31;;;;;;;2.65;1.20;;;;;;;22.31;60.83;101744.94;5021283;28;20442;-58
2022/08/05 09:42:57;;;;;;;3.67;1.27;;;;;;;22.60;58.71;101743.31;5024572;28;20029;-60
2022/08/05 09:45:34;;;;;;;2.83;1.02;;;;;;;22.66;56.77;101747.81;5026970;28;20021;-60
2022/08/05 09:48:00;;;;;;;2.35;1.35;;;;;;;22.72;55.45;101745.00;5023539;28;20022;-59
2022/08/05 09:50:36;;;;;;;2.83;1.05;;;;;;;23.13;56.00;101741.56;5022343;28;20445;-60
2022/08/05 09:53:01;;;;;;;3.20;1.10;;;;;;;23.47;55.21;101745.38;5021903;28;20110;-59
2022/08/05 09:55:34;;;;;;;2.53;1.02;;;;;;;23.68;54.61;101752.13;5026890;28;20049;-60
2022/08/05 09:58:12;;;;;;;2.25;1.00;;;;;;;23.68;52.67;101743.16;5020869;28;20036;-60
2022/08/05 10:00:37;;;;;;;3.00;1.00;;;;;;;23.65;51.59;101754.50;5018976;28;20554;-60
2022/08/05 10:03:09;;;;;;;3.92;0.90;;;;;;;23.44;51.56;101755.88;5015929;28;20037;-60
2022/08/05 10:05:36;;;;;;;1.52;0.70;;;;;;;23.15;49.68;101761.13;5024981;28;20026;-59
2022/08/05 10:08:05;;;;;;;4.90;0.90;;;;;;;22.89;48.97;101755.25;5017817;28;20101;-60
2022/08/05 10:10:35;;;;;;;3.03;0.80;;;;;;;22.92;49.00;101758.31;5018194;28;20480;-58
2022/08/05 10:13:01;;;;;;;2.45;0.80;;;;;;;22.96;49.35;101759.50;5018982;28;20117;-59
2022/08/05 10:15:32;;;;;;;2.53;0.73;;;;;;;22.98;48.85;101770.13;5023100;28;20022;-57
2022/08/05 10:18:15;;;;;;;1.52;0.70;;;;;;;23.27;49.25;101763.84;5016906;28;20041;-59
2022/08/05 10:20:46;;;;;;;2.40;0.70;;;;;;;23.37;49.72;101760.56;5016737;28;20024;-57
2022/08/05 10:23:14;;;;;;;2.13;0.95;;;;;;;23.47;49.79;101774.38;5017371;28;20029;-58
2022/08/05 10:25:39;;;;;;;3.22;1.75;;;;;;;23.47;49.10;101772.50;5021340;28;20155;-60
2022/08/05 10:28:05;;;;;;;6.13;3.25;;;;;;;23.48;49.36;101770.63;5018632;28;20526;-58
2022/08/05 10:30:31;;;;;;;2.42;0.77;;;;;;;23.38;47.74;101775.75;5013711;28;20133;-59
2022/08/05 10:33:00;;;;;;;1.90;0.70;;;;;;;23.30;47.49;101774.22;5017748;28;20100;-59
2022/08/05 10:35:25;;;;;;;3.65;2.10;;;;;;;23.23;47.12;101781.63;5016541;28;20521;-60
2022/08/05 10:37:52;;;;;;;1.95;0.73;;;;;;;23.09;45.97;101778.28;5014536;28;20109;-58
2022/08/05 10:40:30;;;;;;;1.65;0.70;;;;;;;23.07;45.68;101780.38;5014460;28;20122;-58
2022/08/05 10:43:01;;;;;;;1.02;0.60;;;;;;;23.19;45.55;101780.44;5015213;28;20053;-59
2022/08/05 10:45:27;;;;;;;2.80;0.65;;;;;;;23.45;45.60;101782.75;5016602;28;20363;-59
2022/08/05 10:47:53;;;;;;;2.33;0.60;;;;;;;23.52;45.00;101782.63;5016364;28;20025;-59
2022/08/05 10:50:19;;;;;;;4.25;0.98;;;;;;;23.73;44.69;101784.81;5017982;28;20068;-60
2022/08/05 10:52:58;;;;;;;2.45;0.73;;;;;;;23.85;43.86;101790.25;5026526;28;20060;-59
2022/08/05 10:55:24;;;;;;;2.25;0.60;;;;;;;23.94;42.65;101791.53;5016516;28;20105;-57
2022/08/05 10:58:08;;;;;;;3.38;0.75;;;;;;;24.07;43.38;101791.31;5012927;28;20109;-60
2022/08/05 11:00:34;;;;;;;3.60;0.75;;;;;;;23.99;43.15;101802.50;5012215;28;20618;-60
2022/08/05 11:03:02;;;;;;;0.95;0.50;;;;;;;24.06;42.22;101805.13;5009897;28;20097;-58
2022/08/05 11:05:28;;;;;;;1.92;0.80;;;;;;;24.31;42.90;101796.75;5017452;28;20731;-59
2022/08/05 11:07:59;;;;;;;2.70;0.60;;;;;;;24.49;42.54;101807.44;5010499;28;20029;-60
2022/08/05 11:10:25;;;;;;;1.35;0.60;;;;;;;24.56;40.52;101805.41;5012672;28;20630;-60
2022/08/05 11:12:51;;;;;;;1.85;0.65;;;;;;;24.65;40.22;101817.56;5019741;28;20022;-60
2022/08/05 11:15:26;;;;;;;1.50;0.70;;;;;;;24.78;40.82;101818.34;5015768;28;20029;-59
2022/08/05 11:17:53;;;;;;;4.35;1.73;;;;;;;24.93;41.27;101815.94;5019694;28;20109;-60
2022/08/05 11:20:36;;;;;;;5.47;4.03;;;;;;;25.04;41.17;101820.53;5012686;28;20053;-60
2022/08/05 11:23:26;;;;;;;1.63;0.60;;;;;;;25.01;39.84;101819.13;5012587;28;20040;-58
2022/08/05 11:26:01;;;;;;;0.95;0.60;;;;;;;24.82;39.59;101828.47;5014353;28;20028;-60
2022/08/05 11:28:26;;;;;;;2.08;0.60;;;;;;;24.71;40.34;101829.34;5013498;28;20029;-60